Voo Doo — V7YS8 — position and weather

sailwx.info

Track history (hours):
 
Tides and Currents Weather Stations Pressure Air Temp Water Temp Dewpoint Dewpoint Depression Visibility Wind Speed Wind Dir Waves Ship Positions

Voo Doo

Last reported at 2017-Nov-17 09:48 UTC. Time now 2017-Nov-17 19:46 UTC.
Position N 18°01' W 063°06'.

Length 22 m.

Type: Sailing vessel. MMSI: 538070861.

Date/timePositionNaut miles runAvg speedWind from/ knotsBaromVisibWave heightAir tempDewpointWater temp
2017-Nov-17 09:48N 18°01' W 063°06'  
2017-Nov-08 11:58N 18°02' W 063°06'65 7.8
2017-Nov-08 03:42N 17°34' W 062°05'2 7.5
2017-Nov-08 03:22N 17°33' W 062°02'4 7.7
2017-Nov-08 02:53N 17°31' W 061°59'3 7.7
2017-Nov-08 02:29N 17°30' W 061°56'4 7.9
2017-Nov-08 01:59N 17°28' W 061°52'4 7.9
2017-Nov-08 01:30N 17°27' W 061°48'4 7.9
2017-Nov-08 00:56N 17°25' W 061°44'3 7.9
2017-Nov-08 00:30N 17°23' W 061°41'4 8.2
2017-Nov-08 00:00N 17°22' W 061°37'4 8.2
2017-Nov-07 23:30N 17°20' W 061°33'4 8.2
2017-Nov-07 23:00N 17°18' W 061°29'4 8.2
2017-Nov-07 22:29N 17°17' W 061°25'4 8.0
2017-Nov-07 21:56N 17°15' W 061°21'  
Track history (hours):
 
Tides and Currents Weather Stations Pressure Air Temp Water Temp Dewpoint Dewpoint Depression Visibility Wind Speed Wind Dir Waves Ship Positions

Voo Doo

Last reported at 2017-Nov-17 09:48 UTC. Time now 2017-Nov-17 19:46 UTC.
Position N 18°01' W 063°06'.

Length 22 m.

Type: Sailing vessel. MMSI: 538070861.

Date/timePositionNaut miles runAvg speedWind from/ knotsBaromVisibWave heightAir tempDewpointWater temp
2017-Nov-17 09:48N 18°01' W 063°06'  
2017-Nov-08 11:58N 18°02' W 063°06'65 7.8
2017-Nov-08 03:42N 17°34' W 062°05'2 7.5
2017-Nov-08 03:22N 17°33' W 062°02'4 7.7
2017-Nov-08 02:53N 17°31' W 061°59'3 7.7
2017-Nov-08 02:29N 17°30' W 061°56'4 7.9
2017-Nov-08 01:59N 17°28' W 061°52'4 7.9
2017-Nov-08 01:30N 17°27' W 061°48'4 7.9
2017-Nov-08 00:56N 17°25' W 061°44'3 7.9
2017-Nov-08 00:30N 17°23' W 061°41'4 8.2
2017-Nov-08 00:00N 17°22' W 061°37'4 8.2
2017-Nov-07 23:30N 17°20' W 061°33'4 8.2
2017-Nov-07 23:00N 17°18' W 061°29'4 8.2
2017-Nov-07 22:29N 17°17' W 061°25'4 8.0
2017-Nov-07 21:56N 17°15' W 061°21'  

Dump ship's entire track history